sensor_id;sensor_type;location;lat;lon;timestamp;temperature;humidity
76384;SHT30;65204;48.606;7.598;2023-07-29T00:00:12;22.49;76.53
76384;SHT30;65204;48.606;7.598;2023-07-29T00:00:43;22.50;76.56
76384;SHT30;65204;48.606;7.598;2023-07-29T00:01:13;22.47;76.48
76384;SHT30;65204;48.606;7.598;2023-07-29T00:01:43;22.47;76.53
76384;SHT30;65204;48.606;7.598;2023-07-29T00:02:14;22.46;76.51
76384;SHT30;65204;48.606;7.598;2023-07-29T00:02:44;22.49;76.50
76384;SHT30;65204;48.606;7.598;2023-07-29T00:03:14;22.46;76.48
76384;SHT30;65204;48.606;7.598;2023-07-29T00:03:45;22.43;76.63
76384;SHT30;65204;48.606;7.598;2023-07-29T00:04:15;22.42;76.65
76384;SHT30;65204;48.606;7.598;2023-07-29T00:04:46;22.46;76.65
76384;SHT30;65204;48.606;7.598;2023-07-29T00:05:16;22.44;76.61
76384;SHT30;65204;48.606;7.598;2023-07-29T00:05:47;22.42;76.64
76384;SHT30;65204;48.606;7.598;2023-07-29T00:06:18;22.40;76.67
76384;SHT30;65204;48.606;7.598;2023-07-29T00:06:48;22.42;76.66
76384;SHT30;65204;48.606;7.598;2023-07-29T00:07:18;22.42;76.68
76384;SHT30;65204;48.606;7.598;2023-07-29T00:07:49;22.40;76.67
76384;SHT30;65204;48.606;7.598;2023-07-29T00:08:19;22.40;76.69
76384;SHT30;65204;48.606;7.598;2023-07-29T00:08:50;22.39;76.69
76384;SHT30;65204;48.606;7.598;2023-07-29T00:09:20;22.40;76.67
76384;SHT30;65204;48.606;7.598;2023-07-29T00:09:50;22.40;76.68
76384;SHT30;65204;48.606;7.598;2023-07-29T00:10:21;22.42;76.66
76384;SHT30;65204;48.606;7.598;2023-07-29T00:10:51;22.42;76.70
76384;SHT30;65204;48.606;7.598;2023-07-29T00:11:22;22.40;76.67
76384;SHT30;65204;48.606;7.598;2023-07-29T00:11:52;22.40;76.66
76384;SHT30;65204;48.606;7.598;2023-07-29T00:12:23;22.39;76.66
76384;SHT30;65204;48.606;7.598;2023-07-29T00:12:53;22.40;76.69
76384;SHT30;65204;48.606;7.598;2023-07-29T00:13:23;22.40;76.71
76384;SHT30;65204;48.606;7.598;2023-07-29T00:13:54;22.40;76.72
76384;SHT30;65204;48.606;7.598;2023-07-29T00:14:24;22.40;76.78
76384;SHT30;65204;48.606;7.598;2023-07-29T00:14:54;22.39;76.68
76384;SHT30;65204;48.606;7.598;2023-07-29T00:15:25;22.40;76.70
76384;SHT30;65204;48.606;7.598;2023-07-29T00:15:55;22.39;76.70
76384;SHT30;65204;48.606;7.598;2023-07-29T00:16:26;22.37;76.75
76384;SHT30;65204;48.606;7.598;2023-07-29T00:16:56;22.40;76.73
76384;SHT30;65204;48.606;7.598;2023-07-29T00:17:26;22.36;76.70
76384;SHT30;65204;48.606;7.598;2023-07-29T00:17:57;22.40;76.71
76384;SHT30;65204;48.606;7.598;2023-07-29T00:18:27;22.37;76.70
76384;SHT30;65204;48.606;7.598;2023-07-29T00:18:57;22.35;76.69
76384;SHT30;65204;48.606;7.598;2023-07-29T00:19:28;22.35;76.68
76384;SHT30;65204;48.606;7.598;2023-07-29T00:19:58;22.32;76.69
76384;SHT30;65204;48.606;7.598;2023-07-29T00:20:29;22.35;76.71
76384;SHT30;65204;48.606;7.598;2023-07-29T00:20:59;22.33;76.74
76384;SHT30;65204;48.606;7.598;2023-07-29T00:21:29;22.32;76.77
76384;SHT30;65204;48.606;7.598;2023-07-29T00:22:00;22.32;76.73
76384;SHT30;65204;48.606;7.598;2023-07-29T00:22:30;22.29;76.78
76384;SHT30;65204;48.606;7.598;2023-07-29T00:23:00;22.26;76.84
76384;SHT30;65204;48.606;7.598;2023-07-29T00:23:31;22.28;76.79
76384;SHT30;65204;48.606;7.598;2023-07-29T00:24:02;22.29;76.84
76384;SHT30;65204;48.606;7.598;2023-07-29T00:24:32;22.29;76.96
76384;SHT30;65204;48.606;7.598;2023-07-29T00:25:02;22.28;76.85
76384;SHT30;65204;48.606;7.598;2023-07-29T00:25:33;22.24;76.82
76384;SHT30;65204;48.606;7.598;2023-07-29T00:26:03;22.26;76.80
76384;SHT30;65204;48.606;7.598;2023-07-29T00:26:34;22.24;76.78
76384;SHT30;65204;48.606;7.598;2023-07-29T00:27:04;22.26;76.81
76384;SHT30;65204;48.606;7.598;2023-07-29T00:27:35;22.23;76.85
76384;SHT30;65204;48.606;7.598;2023-07-29T00:28:05;22.26;76.87
76384;SHT30;65204;48.606;7.598;2023-07-29T00:28:36;22.22;76.84
76384;SHT30;65204;48.606;7.598;2023-07-29T00:29:06;22.22;76.85
76384;SHT30;65204;48.606;7.598;2023-07-29T00:29:37;22.20;76.83
76384;SHT30;65204;48.606;7.598;2023-07-29T00:30:07;22.20;76.86
76384;SHT30;65204;48.606;7.598;2023-07-29T00:30:38;22.19;76.81
76384;SHT30;65204;48.606;7.598;2023-07-29T00:31:08;22.16;76.76
76384;SHT30;65204;48.606;7.598;2023-07-29T00:31:38;22.14;76.85
76384;SHT30;65204;48.606;7.598;2023-07-29T00:32:09;22.16;76.85
76384;SHT30;65204;48.606;7.598;2023-07-29T00:32:39;22.14;76.92
76384;SHT30;65204;48.606;7.598;2023-07-29T00:33:09;22.16;76.95
76384;SHT30;65204;48.606;7.598;2023-07-29T00:33:40;22.14;76.97
76384;SHT30;65204;48.606;7.598;2023-07-29T00:34:10;22.14;76.96
76384;SHT30;65204;48.606;7.598;2023-07-29T00:34:40;22.14;76.95
76384;SHT30;65204;48.606;7.598;2023-07-29T00:35:11;22.14;77.01
76384;SHT30;65204;48.606;7.598;2023-07-29T00:35:41;22.09;77.06
76384;SHT30;65204;48.606;7.598;2023-07-29T00:36:11;22.09;77.08
76384;SHT30;65204;48.606;7.598;2023-07-29T00:36:42;22.09;77.10
76384;SHT30;65204;48.606;7.598;2023-07-29T00:37:12;22.10;77.06
76384;SHT30;65204;48.606;7.598;2023-07-29T00:37:43;22.08;76.98
76384;SHT30;65204;48.606;7.598;2023-07-29T00:38:13;22.10;76.94
76384;SHT30;65204;48.606;7.598;2023-07-29T00:38:43;22.09;76.91
76384;SHT30;65204;48.606;7.598;2023-07-29T00:39:13;22.09;76.95
76384;SHT30;65204;48.606;7.598;2023-07-29T00:39:44;22.10;77.06
76384;SHT30;65204;48.606;7.598;2023-07-29T00:40:19;22.08;77.09
76384;SHT30;65204;48.606;7.598;2023-07-29T00:40:49;22.05;77.24
76384;SHT30;65204;48.606;7.598;2023-07-29T00:41:21;21.99;77.17
76384;SHT30;65204;48.606;7.598;2023-07-29T00:41:51;22.03;77.14
76384;SHT30;65204;48.606;7.598;2023-07-29T00:42:22;22.02;77.13
76384;SHT30;65204;48.606;7.598;2023-07-29T00:42:52;21.99;77.05
76384;SHT30;65204;48.606;7.598;2023-07-29T00:43:22;21.99;77.09
76384;SHT30;65204;48.606;7.598;2023-07-29T00:43:53;22.02;77.16
76384;SHT30;65204;48.606;7.598;2023-07-29T00:44:23;22.01;77.21
76384;SHT30;65204;48.606;7.598;2023-07-29T00:44:53;22.01;77.19
76384;SHT30;65204;48.606;7.598;2023-07-29T00:45:25;22.02;77.25
76384;SHT30;65204;48.606;7.598;2023-07-29T00:45:57;22.03;77.26
76384;SHT30;65204;48.606;7.598;2023-07-29T00:46:28;22.02;77.25
76384;SHT30;65204;48.606;7.598;2023-07-29T00:47:00;22.03;77.26
76384;SHT30;65204;48.606;7.598;2023-07-29T00:47:32;22.01;77.25
76384;SHT30;65204;48.606;7.598;2023-07-29T00:48:03;22.05;77.27
76384;SHT30;65204;48.606;7.598;2023-07-29T00:48:34;22.05;77.41
76384;SHT30;65204;48.606;7.598;2023-07-29T00:49:04;22.05;77.35
76384;SHT30;65204;48.606;7.598;2023-07-29T00:49:35;22.02;77.31
76384;SHT30;65204;48.606;7.598;2023-07-29T00:50:06;22.03;77.27
76384;SHT30;65204;48.606;7.598;2023-07-29T00:50:37;22.01;77.32
76384;SHT30;65204;48.606;7.598;2023-07-29T00:51:07;22.03;77.33
76384;SHT30;65204;48.606;7.598;2023-07-29T00:51:38;22.01;77.37
76384;SHT30;65204;48.606;7.598;2023-07-29T00:52:08;22.05;77.32
76384;SHT30;65204;48.606;7.598;2023-07-29T00:52:41;22.02;77.33
76384;SHT30;65204;48.606;7.598;2023-07-29T00:53:11;22.03;77.32
76384;SHT30;65204;48.606;7.598;2023-07-29T00:53:42;22.02;77.33
76384;SHT30;65204;48.606;7.598;2023-07-29T00:54:13;22.03;77.34
76384;SHT30;65204;48.606;7.598;2023-07-29T00:54:43;22.05;77.36
76384;SHT30;65204;48.606;7.598;2023-07-29T00:55:14;22.05;77.41
76384;SHT30;65204;48.606;7.598;2023-07-29T00:55:44;22.01;77.41
76384;SHT30;65204;48.606;7.598;2023-07-29T00:56:14;22.01;77.38
76384;SHT30;65204;48.606;7.598;2023-07-29T00:56:45;22.02;77.35
76384;SHT30;65204;48.606;7.598;2023-07-29T00:57:16;22.01;77.34
76384;SHT30;65204;48.606;7.598;2023-07-29T00:57:47;22.02;77.35
76384;SHT30;65204;48.606;7.598;2023-07-29T00:58:19;22.02;77.35
76384;SHT30;65204;48.606;7.598;2023-07-29T00:58:50;22.02;77.33
76384;SHT30;65204;48.606;7.598;2023-07-29T00:59:22;22.03;77.26
76384;SHT30;65204;48.606;7.598;2023-07-29T00:59:53;22.03;77.25
76384;SHT30;65204;48.606;7.598;2023-07-29T01:00:24;22.02;77.26
76384;SHT30;65204;48.606;7.598;2023-07-29T01:00:55;22.08;77.33
76384;SHT30;65204;48.606;7.598;2023-07-29T01:01:26;22.05;77.31
76384;SHT30;65204;48.606;7.598;2023-07-29T01:01:56;22.08;77.28
76384;SHT30;65204;48.606;7.598;2023-07-29T01:02:27;22.08;77.27
76384;SHT30;65204;48.606;7.598;2023-07-29T01:02:57;22.10;77.25
76384;SHT30;65204;48.606;7.598;2023-07-29T01:03:27;22.09;77.20
76384;SHT30;65204;48.606;7.598;2023-07-29T01:03:58;22.09;77.25
76384;SHT30;65204;48.606;7.598;2023-07-29T01:04:28;22.10;77.23
76384;SHT30;65204;48.606;7.598;2023-07-29T01:04:59;22.09;77.23
76384;SHT30;65204;48.606;7.598;2023-07-29T01:05:40;22.06;77.19
76384;SHT30;65204;48.606;7.598;2023-07-29T01:07:14;22.09;77.16
76384;SHT30;65204;48.606;7.598;2023-07-29T01:10:09;22.02;77.54
76384;SHT30;65204;48.606;7.598;2023-07-29T01:10:58;22.01;77.71
76384;SHT30;65204;48.606;7.598;2023-07-29T01:12:36;21.98;77.58
76384;SHT30;65204;48.606;7.598;2023-07-29T01:13:18;21.96;77.56
76384;SHT30;65204;48.606;7.598;2023-07-29T01:14:04;21.96;77.53
76384;SHT30;65204;48.606;7.598;2023-07-29T01:14:45;21.96;77.51
76384;SHT30;65204;48.606;7.598;2023-07-29T01:16:00;21.98;77.52
76384;SHT30;65204;48.606;7.598;2023-07-29T01:16:36;21.98;77.63
76384;SHT30;65204;48.606;7.598;2023-07-29T01:17:15;21.98;77.64
76384;SHT30;65204;48.606;7.598;2023-07-29T01:17:57;21.96;77.69
76384;SHT30;65204;48.606;7.598;2023-07-29T01:18:31;21.96;77.68
76384;SHT30;65204;48.606;7.598;2023-07-29T01:19:05;21.98;77.67
76384;SHT30;65204;48.606;7.598;2023-07-29T01:20:43;21.93;77.76
76384;SHT30;65204;48.606;7.598;2023-07-29T01:21:16;21.96;77.66
76384;SHT30;65204;48.606;7.598;2023-07-29T01:21:47;21.98;77.65
76384;SHT30;65204;48.606;7.598;2023-07-29T01:22:19;21.96;77.61
76384;SHT30;65204;48.606;7.598;2023-07-29T01:22:50;21.99;77.62
76384;SHT30;65204;48.606;7.598;2023-07-29T01:23:24;21.98;77.62
76384;SHT30;65204;48.606;7.598;2023-07-29T01:23:58;21.98;77.61
76384;SHT30;65204;48.606;7.598;2023-07-29T01:24:29;21.95;77.67
76384;SHT30;65204;48.606;7.598;2023-07-29T01:24:59;21.98;77.60
76384;SHT30;65204;48.606;7.598;2023-07-29T01:25:30;21.96;77.58
76384;SHT30;65204;48.606;7.598;2023-07-29T01:26:01;21.98;77.48
76384;SHT30;65204;48.606;7.598;2023-07-29T01:26:31;21.99;77.53
76384;SHT30;65204;48.606;7.598;2023-07-29T01:27:02;22.01;77.50
76384;SHT30;65204;48.606;7.598;2023-07-29T01:27:34;21.96;77.55
76384;SHT30;65204;48.606;7.598;2023-07-29T01:28:05;22.01;77.49
76384;SHT30;65204;48.606;7.598;2023-07-29T01:28:35;21.98;77.50
76384;SHT30;65204;48.606;7.598;2023-07-29T01:29:06;22.01;77.49
76384;SHT30;65204;48.606;7.598;2023-07-29T01:29:36;22.01;77.47
76384;SHT30;65204;48.606;7.598;2023-07-29T01:30:07;22.01;77.51
76384;SHT30;65204;48.606;7.598;2023-07-29T01:30:39;22.01;77.45
76384;SHT30;65204;48.606;7.598;2023-07-29T01:31:17;22.01;77.45
76384;SHT30;65204;48.606;7.598;2023-07-29T01:31:54;22.01;77.42
76384;SHT30;65204;48.606;7.598;2023-07-29T01:33:11;22.02;77.41
76384;SHT30;65204;48.606;7.598;2023-07-29T01:33:50;22.02;77.45
76384;SHT30;65204;48.606;7.598;2023-07-29T01:34:32;22.02;77.48
76384;SHT30;65204;48.606;7.598;2023-07-29T01:35:47;22.01;77.47
76384;SHT30;65204;48.606;7.598;2023-07-29T01:36:22;22.02;77.49
76384;SHT30;65204;48.606;7.598;2023-07-29T01:36:54;22.03;77.48
76384;SHT30;65204;48.606;7.598;2023-07-29T01:37:30;22.02;77.49
76384;SHT30;65204;48.606;7.598;2023-07-29T01:38:08;22.03;77.51
76384;SHT30;65204;48.606;7.598;2023-07-29T01:38:41;22.02;77.55
76384;SHT30;65204;48.606;7.598;2023-07-29T01:39:14;22.03;77.52
76384;SHT30;65204;48.606;7.598;2023-07-29T01:39:48;22.01;77.46
76384;SHT30;65204;48.606;7.598;2023-07-29T01:40:22;22.01;77.37
76384;SHT30;65204;48.606;7.598;2023-07-29T01:40:53;22.02;77.39
76384;SHT30;65204;48.606;7.598;2023-07-29T01:41:24;22.03;77.36
76384;SHT30;65204;48.606;7.598;2023-07-29T01:41:55;22.06;77.36
76384;SHT30;65204;48.606;7.598;2023-07-29T01:42:26;22.03;77.29
76384;SHT30;65204;48.606;7.598;2023-07-29T01:42:57;22.03;77.27
76384;SHT30;65204;48.606;7.598;2023-07-29T01:43:31;22.05;77.29
76384;SHT30;65204;48.606;7.598;2023-07-29T01:44:01;22.03;77.27
76384;SHT30;65204;48.606;7.598;2023-07-29T01:44:32;22.03;77.30
76384;SHT30;65204;48.606;7.598;2023-07-29T01:45:04;22.03;77.31
76384;SHT30;65204;48.606;7.598;2023-07-29T01:45:34;22.03;77.31
76384;SHT30;65204;48.606;7.598;2023-07-29T01:46:10;22.05;77.32
76384;SHT30;65204;48.606;7.598;2023-07-29T01:46:41;22.03;77.25
76384;SHT30;65204;48.606;7.598;2023-07-29T01:47:11;22.05;77.21
76384;SHT30;65204;48.606;7.598;2023-07-29T01:47:41;22.05;77.22
76384;SHT30;65204;48.606;7.598;2023-07-29T01:48:12;22.06;77.23
76384;SHT30;65204;48.606;7.598;2023-07-29T01:48:42;22.05;77.22
76384;SHT30;65204;48.606;7.598;2023-07-29T01:49:13;22.06;77.21
76384;SHT30;65204;48.606;7.598;2023-07-29T01:49:43;22.08;77.20
76384;SHT30;65204;48.606;7.598;2023-07-29T01:50:13;22.08;77.15
76384;SHT30;65204;48.606;7.598;2023-07-29T01:50:44;22.09;77.14
76384;SHT30;65204;48.606;7.598;2023-07-29T01:51:14;22.10;77.03
76384;SHT30;65204;48.606;7.598;2023-07-29T01:51:44;22.10;77.04
76384;SHT30;65204;48.606;7.598;2023-07-29T01:52:15;22.08;77.05
76384;SHT30;65204;48.606;7.598;2023-07-29T01:52:45;22.09;77.04
76384;SHT30;65204;48.606;7.598;2023-07-29T01:53:15;22.12;76.97
76384;SHT30;65204;48.606;7.598;2023-07-29T01:53:46;22.09;76.99
76384;SHT30;65204;48.606;7.598;2023-07-29T01:54:16;22.09;77.06
76384;SHT30;65204;48.606;7.598;2023-07-29T01:54:46;22.09;77.09
76384;SHT30;65204;48.606;7.598;2023-07-29T01:55:16;22.10;77.05
76384;SHT30;65204;48.606;7.598;2023-07-29T01:55:47;22.09;77.02
76384;SHT30;65204;48.606;7.598;2023-07-29T01:56:17;22.10;77.04
76384;SHT30;65204;48.606;7.598;2023-07-29T01:56:47;22.10;77.04
76384;SHT30;65204;48.606;7.598;2023-07-29T01:57:18;22.10;77.08
76384;SHT30;65204;48.606;7.598;2023-07-29T01:57:48;22.10;77.03
76384;SHT30;65204;48.606;7.598;2023-07-29T01:58:19;22.10;77.08
76384;SHT30;65204;48.606;7.598;2023-07-29T01:58:49;22.09;77.02
76384;SHT30;65204;48.606;7.598;2023-07-29T01:59:19;22.09;77.04
76384;SHT30;65204;48.606;7.598;2023-07-29T01:59:49;22.12;77.04
76384;SHT30;65204;48.606;7.598;2023-07-29T02:00:20;22.13;76.98
76384;SHT30;65204;48.606;7.598;2023-07-29T02:00:51;22.12;76.92
76384;SHT30;65204;48.606;7.598;2023-07-29T02:01:21;22.10;76.94
76384;SHT30;65204;48.606;7.598;2023-07-29T02:01:51;22.13;76.89
76384;SHT30;65204;48.606;7.598;2023-07-29T02:02:22;22.12;76.98
76384;SHT30;65204;48.606;7.598;2023-07-29T02:02:52;22.12;76.92
76384;SHT30;65204;48.606;7.598;2023-07-29T02:03:22;22.13;76.88
76384;SHT30;65204;48.606;7.598;2023-07-29T02:03:53;22.14;76.85
76384;SHT30;65204;48.606;7.598;2023-07-29T02:04:25;22.12;76.86
76384;SHT30;65204;48.606;7.598;2023-07-29T02:04:55;22.14;76.83
76384;SHT30;65204;48.606;7.598;2023-07-29T02:05:26;22.14;76.80
76384;SHT30;65204;48.606;7.598;2023-07-29T02:05:56;22.14;76.80
76384;SHT30;65204;48.606;7.598;2023-07-29T02:06:26;22.13;76.80
76384;SHT30;65204;48.606;7.598;2023-07-29T02:06:57;22.14;76.83
76384;SHT30;65204;48.606;7.598;2023-07-29T02:07:27;22.16;76.85
76384;SHT30;65204;48.606;7.598;2023-07-29T02:07:58;22.16;76.90
76384;SHT30;65204;48.606;7.598;2023-07-29T02:08:28;22.16;76.82
76384;SHT30;65204;48.606;7.598;2023-07-29T02:08:58;22.16;76.81
76384;SHT30;65204;48.606;7.598;2023-07-29T02:09:29;22.16;76.84
76384;SHT30;65204;48.606;7.598;2023-07-29T02:10:01;22.14;76.87
76384;SHT30;65204;48.606;7.598;2023-07-29T02:10:31;22.16;76.81
76384;SHT30;65204;48.606;7.598;2023-07-29T02:11:02;22.19;76.79
76384;SHT30;65204;48.606;7.598;2023-07-29T02:11:32;22.16;76.74
76384;SHT30;65204;48.606;7.598;2023-07-29T02:12:02;22.17;76.71
76384;SHT30;65204;48.606;7.598;2023-07-29T02:12:33;22.17;76.74
76384;SHT30;65204;48.606;7.598;2023-07-29T02:13:04;22.17;76.71
76384;SHT30;65204;48.606;7.598;2023-07-29T02:13:34;22.19;76.72
76384;SHT30;65204;48.606;7.598;2023-07-29T02:14:04;22.17;76.65
76384;SHT30;65204;48.606;7.598;2023-07-29T02:14:35;22.17;76.66
76384;SHT30;65204;48.606;7.598;2023-07-29T02:15:05;22.19;76.63
76384;SHT30;65204;48.606;7.598;2023-07-29T02:15:36;22.22;76.58
76384;SHT30;65204;48.606;7.598;2023-07-29T02:16:06;22.24;76.53
76384;SHT30;65204;48.606;7.598;2023-07-29T02:16:36;22.22;76.52
76384;SHT30;65204;48.606;7.598;2023-07-29T02:17:07;22.20;76.49
76384;SHT30;65204;48.606;7.598;2023-07-29T02:17:42;22.22;76.42
76384;SHT30;65204;48.606;7.598;2023-07-29T02:18:12;22.20;76.46
76384;SHT30;65204;48.606;7.598;2023-07-29T02:18:43;22.20;76.40
76384;SHT30;65204;48.606;7.598;2023-07-29T02:19:13;22.22;76.39
76384;SHT30;65204;48.606;7.598;2023-07-29T02:19:44;22.23;76.45
76384;SHT30;65204;48.606;7.598;2023-07-29T02:20:14;22.24;76.40
76384;SHT30;65204;48.606;7.598;2023-07-29T02:20:44;22.23;76.29
76384;SHT30;65204;48.606;7.598;2023-07-29T02:21:19;22.23;76.38
76384;SHT30;65204;48.606;7.598;2023-07-29T02:21:50;22.23;76.39
76384;SHT30;65204;48.606;7.598;2023-07-29T02:22:20;22.23;76.37
76384;SHT30;65204;48.606;7.598;2023-07-29T02:22:51;22.20;76.42
76384;SHT30;65204;48.606;7.598;2023-07-29T02:23:21;22.22;76.53
76384;SHT30;65204;48.606;7.598;2023-07-29T02:23:51;22.22;76.52
76384;SHT30;65204;48.606;7.598;2023-07-29T02:24:22;22.20;76.49
76384;SHT30;65204;48.606;7.598;2023-07-29T02:24:52;22.19;76.47
76384;SHT30;65204;48.606;7.598;2023-07-29T02:25:22;22.20;76.52
76384;SHT30;65204;48.606;7.598;2023-07-29T02:25:53;22.20;76.50
76384;SHT30;65204;48.606;7.598;2023-07-29T02:26:23;22.19;76.49
76384;SHT30;65204;48.606;7.598;2023-07-29T02:26:53;22.22;76.40
76384;SHT30;65204;48.606;7.598;2023-07-29T02:27:24;22.23;76.36
76384;SHT30;65204;48.606;7.598;2023-07-29T02:27:57;22.20;76.30
76384;SHT30;65204;48.606;7.598;2023-07-29T02:28:27;22.22;76.35
76384;SHT30;65204;48.606;7.598;2023-07-29T02:28:57;22.20;76.46
76384;SHT30;65204;48.606;7.598;2023-07-29T02:29:28;22.20;76.49
76384;SHT30;65204;48.606;7.598;2023-07-29T02:29:59;22.17;76.54
76384;SHT30;65204;48.606;7.598;2023-07-29T02:30:29;22.20;76.46
76384;SHT30;65204;48.606;7.598;2023-07-29T02:31:13;22.14;76.48
76384;SHT30;65204;48.606;7.598;2023-07-29T02:31:44;22.16;76.59
76384;SHT30;65204;48.606;7.598;2023-07-29T02:32:14;22.17;76.56
76384;SHT30;65204;48.606;7.598;2023-07-29T02:32:45;22.17;76.56
76384;SHT30;65204;48.606;7.598;2023-07-29T02:33:15;22.17;76.56
76384;SHT30;65204;48.606;7.598;2023-07-29T02:33:45;22.16;76.53
76384;SHT30;65204;48.606;7.598;2023-07-29T02:34:16;22.16;76.57
76384;SHT30;65204;48.606;7.598;2023-07-29T02:34:46;22.13;76.52
76384;SHT30;65204;48.606;7.598;2023-07-29T02:35:17;22.16;76.50
76384;SHT30;65204;48.606;7.598;2023-07-29T02:35:47;22.16;76.49
76384;SHT30;65204;48.606;7.598;2023-07-29T02:36:17;22.13;76.57
76384;SHT30;65204;48.606;7.598;2023-07-29T02:36:48;22.14;76.60
76384;SHT30;65204;48.606;7.598;2023-07-29T02:37:18;22.14;76.66
76384;SHT30;65204;48.606;7.598;2023-07-29T02:37:49;22.14;76.63
76384;SHT30;65204;48.606;7.598;2023-07-29T02:38:19;22.16;76.64
76384;SHT30;65204;48.606;7.598;2023-07-29T02:38:49;22.16;76.61
76384;SHT30;65204;48.606;7.598;2023-07-29T02:39:20;22.14;76.64
76384;SHT30;65204;48.606;7.598;2023-07-29T02:39:50;22.17;76.62
76384;SHT30;65204;48.606;7.598;2023-07-29T02:40:21;22.14;76.63
76384;SHT30;65204;48.606;7.598;2023-07-29T02:40:52;22.14;76.65
76384;SHT30;65204;48.606;7.598;2023-07-29T02:41:23;22.13;76.65
76384;SHT30;65204;48.606;7.598;2023-07-29T02:41:53;22.12;76.72
76384;SHT30;65204;48.606;7.598;2023-07-29T02:42:25;22.13;76.73
76384;SHT30;65204;48.606;7.598;2023-07-29T02:42:55;22.13;76.75
76384;SHT30;65204;48.606;7.598;2023-07-29T02:43:26;22.14;76.74
76384;SHT30;65204;48.606;7.598;2023-07-29T02:43:56;22.12;76.74
76384;SHT30;65204;48.606;7.598;2023-07-29T02:44:26;22.12;76.74
76384;SHT30;65204;48.606;7.598;2023-07-29T02:44:57;22.13;76.74
76384;SHT30;65204;48.606;7.598;2023-07-29T02:45:27;22.13;76.73
76384;SHT30;65204;48.606;7.598;2023-07-29T02:45:57;22.14;76.70
76384;SHT30;65204;48.606;7.598;2023-07-29T02:46:28;22.14;76.73
76384;SHT30;65204;48.606;7.598;2023-07-29T02:46:58;22.13;76.78
76384;SHT30;65204;48.606;7.598;2023-07-29T02:47:28;22.13;76.77
76384;SHT30;65204;48.606;7.598;2023-07-29T02:47:59;22.13;76.78
76384;SHT30;65204;48.606;7.598;2023-07-29T02:48:30;22.13;76.77
76384;SHT30;65204;48.606;7.598;2023-07-29T02:49:02;22.14;76.68
76384;SHT30;65204;48.606;7.598;2023-07-29T02:49:33;22.13;76.73
76384;SHT30;65204;48.606;7.598;2023-07-29T02:50:04;22.14;76.76
76384;SHT30;65204;48.606;7.598;2023-07-29T02:50:34;22.14;76.77
76384;SHT30;65204;48.606;7.598;2023-07-29T02:51:05;22.14;76.75
76384;SHT30;65204;48.606;7.598;2023-07-29T02:51:35;22.13;76.82
76384;SHT30;65204;48.606;7.598;2023-07-29T02:52:05;22.13;76.80
76384;SHT30;65204;48.606;7.598;2023-07-29T02:52:36;22.14;76.79
76384;SHT30;65204;48.606;7.598;2023-07-29T02:53:06;22.16;76.76
76384;SHT30;65204;48.606;7.598;2023-07-29T02:53:36;22.13;76.75
76384;SHT30;65204;48.606;7.598;2023-07-29T02:54:07;22.14;76.82
76384;SHT30;65204;48.606;7.598;2023-07-29T02:54:37;22.12;76.82
76384;SHT30;65204;48.606;7.598;2023-07-29T02:55:07;22.17;76.74
76384;SHT30;65204;48.606;7.598;2023-07-29T02:55:40;22.17;76.74
76384;SHT30;65204;48.606;7.598;2023-07-29T02:56:11;22.17;76.77
76384;SHT30;65204;48.606;7.598;2023-07-29T02:56:41;22.16;76.81
76384;SHT30;65204;48.606;7.598;2023-07-29T02:57:13;22.19;76.78
76384;SHT30;65204;48.606;7.598;2023-07-29T02:57:43;22.20;76.79
76384;SHT30;65204;48.606;7.598;2023-07-29T02:58:14;22.19;76.79
76384;SHT30;65204;48.606;7.598;2023-07-29T02:58:44;22.19;76.88
76384;SHT30;65204;48.606;7.598;2023-07-29T02:59:15;22.20;76.88
76384;SHT30;65204;48.606;7.598;2023-07-29T02:59:45;22.19;76.87
76384;SHT30;65204;48.606;7.598;2023-07-29T03:00:15;22.17;76.84
76384;SHT30;65204;48.606;7.598;2023-07-29T03:00:46;22.19;76.86
76384;SHT30;65204;48.606;7.598;2023-07-29T03:01:18;22.17;76.84
76384;SHT30;65204;48.606;7.598;2023-07-29T03:01:48;22.17;76.85
76384;SHT30;65204;48.606;7.598;2023-07-29T03:02:19;22.19;76.91
76384;SHT30;65204;48.606;7.598;2023-07-29T03:02:50;22.19;76.80
76384;SHT30;65204;48.606;7.598;2023-07-29T03:03:20;22.19;76.76
76384;SHT30;65204;48.606;7.598;2023-07-29T03:03:51;22.19;76.85
76384;SHT30;65204;48.606;7.598;2023-07-29T03:04:21;22.17;76.83
76384;SHT30;65204;48.606;7.598;2023-07-29T03:04:51;22.17;76.81
76384;SHT30;65204;48.606;7.598;2023-07-29T03:05:21;22.20;76.80
76384;SHT30;65204;48.606;7.598;2023-07-29T03:06:00;22.19;76.74
76384;SHT30;65204;48.606;7.598;2023-07-29T03:06:31;22.17;76.76
76384;SHT30;65204;48.606;7.598;2023-07-29T03:07:01;22.16;76.75
76384;SHT30;65204;48.606;7.598;2023-07-29T03:07:32;22.16;76.76
76384;SHT30;65204;48.606;7.598;2023-07-29T03:08:02;22.17;76.83
76384;SHT30;65204;48.606;7.598;2023-07-29T03:08:34;22.17;76.81
76384;SHT30;65204;48.606;7.598;2023-07-29T03:09:04;22.13;76.76
76384;SHT30;65204;48.606;7.598;2023-07-29T03:09:35;22.17;76.72
76384;SHT30;65204;48.606;7.598;2023-07-29T03:10:06;22.17;76.71
76384;SHT30;65204;48.606;7.598;2023-07-29T03:10:36;22.16;76.68
76384;SHT30;65204;48.606;7.598;2023-07-29T03:11:12;22.16;76.70
76384;SHT30;65204;48.606;7.598;2023-07-29T03:11:42;22.14;76.72
76384;SHT30;65204;48.606;7.598;2023-07-29T03:12:13;22.12;76.77
76384;SHT30;65204;48.606;7.598;2023-07-29T03:12:43;22.13;76.73
76384;SHT30;65204;48.606;7.598;2023-07-29T03:13:14;22.13;76.74
76384;SHT30;65204;48.606;7.598;2023-07-29T03:13:44;22.14;76.80
76384;SHT30;65204;48.606;7.598;2023-07-29T03:14:14;22.14;76.78
76384;SHT30;65204;48.606;7.598;2023-07-29T03:14:47;22.12;76.71
76384;SHT30;65204;48.606;7.598;2023-07-29T03:15:18;22.13;76.72
76384;SHT30;65204;48.606;7.598;2023-07-29T03:15:49;22.12;76.67
76384;SHT30;65204;48.606;7.598;2023-07-29T03:16:19;22.08;76.62
76384;SHT30;65204;48.606;7.598;2023-07-29T03:16:49;22.13;76.60
76384;SHT30;65204;48.606;7.598;2023-07-29T03:17:20;22.08;76.64
76384;SHT30;65204;48.606;7.598;2023-07-29T03:17:50;22.09;76.67
76384;SHT30;65204;48.606;7.598;2023-07-29T03:18:21;22.06;76.67
76384;SHT30;65204;48.606;7.598;2023-07-29T03:18:51;22.06;76.67
76384;SHT30;65204;48.606;7.598;2023-07-29T03:19:21;22.06;76.71
76384;SHT30;65204;48.606;7.598;2023-07-29T03:19:52;22.05;76.71
76384;SHT30;65204;48.606;7.598;2023-07-29T03:20:22;22.03;76.72
76384;SHT30;65204;48.606;7.598;2023-07-29T03:20:55;22.01;76.66
76384;SHT30;65204;48.606;7.598;2023-07-29T03:21:26;22.03;76.77
76384;SHT30;65204;48.606;7.598;2023-07-29T03:21:56;22.01;76.73
76384;SHT30;65204;48.606;7.598;2023-07-29T03:22:26;22.02;76.77
76384;SHT30;65204;48.606;7.598;2023-07-29T03:22:57;22.01;76.74
76384;SHT30;65204;48.606;7.598;2023-07-29T03:23:28;22.03;76.77
76384;SHT30;65204;48.606;7.598;2023-07-29T03:23:59;22.02;76.75
76384;SHT30;65204;48.606;7.598;2023-07-29T03:24:30;22.02;76.77